Time;durP1;ratioP1;P1;durP2;ratioP2;P2;SDS_P1;SDS_P2;PMS_P1;PMS_P2;Temp;Humidity;BMP_temperature;BMP_pressure;BME280_temperature;BME280_humidity;BME280_pressure;Samples;Min_cycle;Max_cycle;Signal;HPM_P1;HPM_P2
2023/06/22 00:01:43;;;;;;;16.58;13.10;;;25.30;99.90;;;;;;5076163;28;20033;-51
2023/06/22 00:04:08;;;;;;;18.60;13.10;;;25.30;99.90;;;;;;5080422;28;20029;-52
2023/06/22 00:06:34;;;;;;;16.85;12.93;;;25.30;99.90;;;;;;5075612;28;20052;-51
2023/06/22 00:09:00;;;;;;;16.58;13.15;;;25.30;99.90;;;;;;5080052;28;20031;-54
2023/06/22 00:11:26;;;;;;;21.08;14.43;;;25.30;99.90;;;;;;5075279;28;20032;-53
2023/06/22 00:13:51;;;;;;;22.30;16.05;;;25.20;99.90;;;;;;5079984;28;20031;-52
2023/06/22 00:16:17;;;;;;;24.40;15.98;;;25.20;99.90;;;;;;5076494;28;20030;-51
2023/06/22 00:18:46;;;;;;;29.42;16.25;;;25.20;99.90;;;;;;5073664;28;20090;-53
2023/06/22 00:21:13;;;;;;;24.98;15.50;;;25.20;99.90;;;;;;5077296;28;20493;-53
2023/06/22 00:23:38;;;;;;;38.47;19.58;;;25.20;99.90;;;;;;5058557;28;20514;-52
2023/06/22 00:26:04;;;;;;;27.33;17.17;;;25.10;99.90;;;;;;5077134;28;20025;-49
2023/06/22 00:28:30;;;;;;;19.60;14.95;;;25.10;99.90;;;;;;5075206;28;20416;-53
2023/06/22 00:30:56;;;;;;;18.70;14.85;;;25.00;99.90;;;;;;5076443;28;20035;-53
2023/06/22 00:33:21;;;;;;;15.45;12.52;;;25.00;99.90;;;;;;5060242;28;20391;-52
2023/06/22 00:35:47;;;;;;;13.90;11.52;;;24.90;99.90;;;;;;5076514;28;20401;-54
2023/06/22 00:38:13;;;;;;;19.92;13.20;;;24.80;99.90;;;;;;5076663;28;20118;-52
2023/06/22 00:40:39;;;;;;;17.10;12.32;;;24.80;99.90;;;;;;5077171;28;20035;-52
2023/06/22 00:43:05;;;;;;;16.20;12.25;;;24.80;99.90;;;;;;5079400;28;20032;-52
2023/06/22 00:45:31;;;;;;;23.35;13.13;;;24.70;99.90;;;;;;5052313;28;20548;-53
2023/06/22 00:47:57;;;;;;;19.00;12.70;;;24.70;99.90;;;;;;5075541;28;20032;-52
2023/06/22 00:50:25;;;;;;;16.48;12.25;;;24.70;99.90;;;;;;5078995;28;20029;-52
2023/06/22 00:52:54;;;;;;;14.00;12.18;;;24.60;99.90;;;;;;5074836;28;20039;-49
2023/06/22 00:55:21;;;;;;;15.52;12.57;;;24.60;99.90;;;;;;5076244;28;20456;-50
2023/06/22 00:57:47;;;;;;;20.42;12.95;;;24.60;99.90;;;;;;5046933;28;20040;-55
2023/06/22 01:00:19;;;;;;;14.70;11.95;;;24.60;99.90;;;;;;5075439;28;20032;-52
2023/06/22 01:02:46;;;;;;;18.02;12.48;;;24.60;99.90;;;;;;5057648;28;20053;-54
2023/06/22 01:05:15;;;;;;;17.98;13.25;;;24.60;99.90;;;;;;5075838;28;20075;-51
2023/06/22 01:07:56;;;;;;;15.93;12.90;;;24.60;99.90;;;;;;5077903;28;20048;-52
2023/06/22 01:10:36;;;;;;;17.40;12.17;;;24.60;99.90;;;;;;5068665;28;20081;-51
2023/06/22 01:13:07;;;;;;;16.10;13.15;;;24.60;99.90;;;;;;5083886;28;20054;-54
2023/06/22 01:15:46;;;;;;;15.73;12.80;;;24.50;99.90;;;;;;5076868;28;20380;-54
2023/06/22 01:18:14;;;;;;;15.68;12.45;;;24.60;99.90;;;;;;5074478;28;20289;-50
2023/06/22 01:20:41;;;;;;;16.52;12.18;;;24.60;99.90;;;;;;5074324;28;20020;-51
2023/06/22 01:23:25;;;;;;;17.20;13.15;;;24.60;99.90;;;;;;5075088;28;20044;-53
2023/06/22 01:26:34;;;;;;;20.25;12.68;;;24.60;99.90;;;;;;5071593;28;20052;-53
2023/06/22 01:29:03;;;;;;;18.80;12.45;;;24.70;99.90;;;;;;5078834;28;20036;-53
2023/06/22 01:31:31;;;;;;;16.85;12.73;;;24.70;99.90;;;;;;5075252;28;20118;-49
2023/06/22 01:34:03;;;;;;;19.83;12.93;;;24.70;99.90;;;;;;5082911;28;20038;-52
2023/06/22 01:36:30;;;;;;;18.60;13.02;;;24.70;99.90;;;;;;5070327;28;20084;-51
2023/06/22 01:38:57;;;;;;;16.70;12.65;;;24.70;99.90;;;;;;5077437;28;20052;-53
2023/06/22 01:41:26;;;;;;;15.63;12.32;;;24.70;99.90;;;;;;5055620;28;20036;-50
2023/06/22 01:43:53;;;;;;;18.17;13.73;;;24.70;99.90;;;;;;5076382;28;20040;-51
2023/06/22 01:46:20;;;;;;;20.02;13.25;;;24.70;99.90;;;;;;5077863;28;20028;-52
2023/06/22 01:48:47;;;;;;;21.02;13.90;;;24.70;99.90;;;;;;5053974;28;20037;-51
2023/06/22 01:51:13;;;;;;;20.02;14.35;;;24.70;99.90;;;;;;5074549;28;20036;-53
2023/06/22 01:53:39;;;;;;;20.55;13.23;;;24.70;99.90;;;;;;5076488;28;20074;-51
2023/06/22 01:56:05;;;;;;;14.95;11.65;;;24.80;99.90;;;;;;5075518;28;20039;-51
2023/06/22 01:58:33;;;;;;;16.00;12.35;;;24.80;99.90;;;;;;5074346;28;20032;-51
2023/06/22 02:01:09;;;;;;;20.70;12.63;;;24.50;99.90;;;;;;5048780;28;20028;-52
2023/06/22 02:03:41;;;;;;;15.63;12.50;;;24.30;99.90;;;;;;5075756;28;20127;-52
2023/06/22 02:06:10;;;;;;;15.45;11.93;;;24.20;99.90;;;;;;5072928;28;20033;-53
2023/06/22 02:08:49;;;;;;;14.73;12.15;;;24.10;99.90;;;;;;5078154;28;20089;-53
2023/06/22 02:11:18;;;;;;;13.20;11.02;;;24.10;99.90;;;;;;5073319;28;20028;-52
2023/06/22 02:13:45;;;;;;;14.13;12.00;;;24.10;99.90;;;;;;5076267;28;20048;-54
2023/06/22 02:16:16;;;;;;;16.27;11.93;;;24.00;99.90;;;;;;5075722;28;20036;-50
2023/06/22 02:18:52;;;;;;;16.17;12.48;;;;;;;;;;5069942;28;20039;-53
2023/06/22 02:21:21;;;;;;;17.42;11.13;;;23.30;99.90;;;;;;5075311;28;20032;-54
2023/06/22 02:23:47;;;;;;;15.50;12.38;;;23.40;99.90;;;;;;5073219;28;20089;-52
2023/06/22 02:26:13;;;;;;;15.45;10.73;;;23.10;99.90;;;;;;5075188;28;20059;-50
2023/06/22 02:28:39;;;;;;;21.50;12.30;;;22.70;99.90;;;;;;5071802;28;20028;-52
2023/06/22 02:31:04;;;;;;;17.88;12.05;;;22.60;99.90;;;;;;5073269;28;20032;-51
2023/06/22 02:33:30;;;;;;;17.02;11.70;;;22.30;99.90;;;;;;5078014;28;20025;-53
2023/06/22 02:35:56;;;;;;;13.85;11.60;;;22.10;99.90;;;;;;5020962;28;20047;-50
2023/06/22 02:38:24;;;;;;;12.63;11.32;;;22.00;99.90;;;;;;5075315;28;20421;-50
2023/06/22 02:40:50;;;;;;;16.23;13.00;;;22.00;99.90;;;;;;5107893;27;20106;-52
2023/06/22 02:43:16;;;;;;;14.43;11.27;;;;;;;;;;5074354;28;20037;-55
2023/06/22 02:45:42;;;;;;;14.70;11.57;;;22.20;99.90;;;;;;5077014;28;20032;-53
2023/06/22 02:48:08;;;;;;;17.13;11.48;;;22.00;99.90;;;;;;5073006;28;20016;-49
2023/06/22 02:50:34;;;;;;;15.00;12.02;;;22.00;99.90;;;;;;5072872;28;20127;-51
2023/06/22 02:52:59;;;;;;;16.02;11.80;;;22.00;99.90;;;;;;5073098;28;20028;-52
2023/06/22 02:55:25;;;;;;;16.50;11.68;;;22.10;99.90;;;;;;5055191;28;20041;-51
2023/06/22 02:57:52;;;;;;;16.23;12.10;;;22.30;99.90;;;;;;5072098;28;20124;-53
2023/06/22 03:00:19;;;;;;;15.60;12.20;;;22.50;99.90;;;;;;5073511;28;20032;-50
2023/06/22 03:02:46;;;;;;;15.98;11.77;;;22.40;99.90;;;;;;5075013;28;20120;-52
2023/06/22 03:05:18;;;;;;;13.95;10.88;;;22.20;99.90;;;;;;5079831;28;20031;-55
2023/06/22 03:07:46;;;;;;;13.30;11.57;;;22.20;99.90;;;;;;5072263;28;20032;-54
2023/06/22 03:10:13;;;;;;;15.23;11.20;;;22.50;99.90;;;;;;5055197;28;20120;-54
2023/06/22 03:12:40;;;;;;;26.55;12.02;;;22.30;99.90;;;;;;5072801;28;20053;-52
2023/06/22 03:15:08;;;;;;;16.05;11.23;;;22.10;99.90;;;;;;5071505;28;20119;-55
2023/06/22 03:17:34;;;;;;;15.13;11.73;;;22.20;99.90;;;;;;5046581;28;20037;-54
2023/06/22 03:20:01;;;;;;;16.13;11.50;;;22.60;99.90;;;;;;5041887;28;20120;-53
2023/06/22 03:22:27;;;;;;;15.10;11.43;;;22.60;99.90;;;;;;5036445;28;20053;-52
2023/06/22 03:24:52;;;;;;;24.15;11.75;;;22.70;99.90;;;;;;5046355;28;20124;-54
2023/06/22 03:27:18;;;;;;;16.80;12.25;;;22.60;99.90;;;;;;5039219;28;20102;-50
2023/06/22 03:29:44;;;;;;;15.38;12.45;;;22.70;99.90;;;;;;5008430;28;20037;-50
2023/06/22 03:32:10;;;;;;;14.65;11.48;;;22.90;99.90;;;;;;5045202;28;20041;-49
2023/06/22 03:34:36;;;;;;;15.93;11.80;;;22.80;99.90;;;;;;5044146;28;20102;-54
2023/06/22 03:37:02;;;;;;;14.20;11.05;;;23.00;99.90;;;;;;5043452;28;20033;-52
2023/06/22 03:39:29;;;;;;;13.52;11.05;;;;;;;;;;5043370;28;20037;-52
2023/06/22 03:41:55;;;;;;;15.32;11.95;;;;;;;;;;5046028;28;20161;-52
2023/06/22 03:44:21;;;;;;;13.23;10.40;;;;;;;;;;5007616;28;20069;-51
2023/06/22 03:46:47;;;;;;;13.30;10.68;;;;;;;;;;5041745;28;20025;-54
2023/06/22 03:49:13;;;;;;;14.38;11.95;;;;;;;;;;5068022;28;20496;-54
2023/06/22 03:51:39;;;;;;;14.05;10.75;;;;;;;;;;5072541;28;20021;-50
2023/06/22 03:54:05;;;;;;;13.52;11.20;;;23.50;99.90;;;;;;5076522;28;20157;-52
2023/06/22 03:56:31;;;;;;;13.55;10.80;;;23.70;99.90;;;;;;5071142;28;20473;-54
2023/06/22 03:58:57;;;;;;;17.08;11.75;;;23.90;99.90;;;;;;5077061;28;20167;-52
2023/06/22 04:01:22;;;;;;;14.88;11.95;;;23.90;99.90;;;;;;5072718;28;20124;-55
2023/06/22 04:03:49;;;;;;;18.50;11.80;;;23.90;99.90;;;;;;5074867;28;20024;-51
2023/06/22 04:06:15;;;;;;;14.35;11.18;;;;;;;;;;5053492;28;20069;-54
2023/06/22 04:08:42;;;;;;;13.90;11.73;;;;;;;;;;5050179;28;20037;-53
2023/06/22 04:11:07;;;;;;;25.92;11.70;;;24.20;99.90;;;;;;5053081;28;20082;-51
2023/06/22 04:13:33;;;;;;;12.93;10.10;;;24.40;99.90;;;;;;5055129;28;20135;-54
2023/06/22 04:16:01;;;;;;;13.50;10.02;;;24.40;99.90;;;;;;5053285;28;20037;-51
2023/06/22 04:18:26;;;;;;;14.82;11.18;;;24.40;99.90;;;;;;5058247;28;20036;-54
2023/06/22 04:20:52;;;;;;;14.02;10.60;;;24.40;99.90;;;;;;5052315;28;20507;-52
2023/06/22 04:23:18;;;;;;;13.55;10.45;;;24.40;99.90;;;;;;5054742;28;20122;-54
2023/06/22 04:25:43;;;;;;;13.50;10.23;;;24.40;99.90;;;;;;5052667;28;20040;-49
2023/06/22 04:28:12;;;;;;;12.52;10.43;;;24.50;99.90;;;;;;5054990;28;20090;-52
2023/06/22 04:30:46;;;;;;;12.88;10.68;;;24.50;99.90;;;;;;5052672;28;20110;-55
2023/06/22 04:33:13;;;;;;;12.18;10.85;;;;;;;;;;5056836;28;20052;-51
2023/06/22 04:35:41;;;;;;;14.15;10.60;;;;;;;;;;5053946;28;20123;-55
2023/06/22 04:38:07;;;;;;;14.05;10.15;;;24.70;99.90;;;;;;5074742;28;20484;-52
2023/06/22 04:40:33;;;;;;;14.73;11.50;;;24.70;99.90;;;;;;5078326;28;20017;-49
2023/06/22 04:43:02;;;;;;;14.10;11.70;;;24.80;99.90;;;;;;5077393;28;20089;-54
2023/06/22 04:45:31;;;;;;;14.70;12.07;;;24.70;99.90;;;;;;5061711;28;20117;-52
2023/06/22 04:47:57;;;;;;;15.38;12.23;;;24.70;99.90;;;;;;5048487;28;20041;-54
2023/06/22 04:50:23;;;;;;;16.05;12.02;;;24.50;99.90;;;;;;5074366;28;20412;-54
2023/06/22 04:52:49;;;;;;;15.20;12.23;;;24.70;99.90;;;;;;5075620;28;20379;-53
2023/06/22 04:55:19;;;;;;;19.73;13.30;;;24.70;99.90;;;;;;5076212;28;20107;-63
2023/06/22 04:57:49;;;;;;;14.38;12.75;;;24.70;99.90;;;;;;5077949;28;20040;-61
2023/06/22 05:00:22;;;;;;;17.13;12.85;;;24.80;99.90;;;;;;5079407;28;20035;-58
2023/06/22 05:02:49;;;;;;;18.02;13.00;;;;;;;;;;5074761;28;20067;-56
2023/06/22 05:05:16;;;;;;;16.67;13.02;;;;;;;;;;5076941;28;20031;-52
2023/06/22 05:07:50;;;;;;;16.80;14.23;;;;;;;;;;5075833;28;20138;-54
2023/06/22 05:10:16;;;;;;;14.82;12.32;;;;;;;;;;5077430;28;20124;-58
2023/06/22 05:12:42;;;;;;;17.38;13.55;;;;;;;;;;5075379;28;20048;-56
2023/06/22 05:15:09;;;;;;;15.40;13.73;;;;;;;;;;5076532;28;20038;-54
2023/06/22 05:17:42;;;;;;;18.73;14.45;;;26.00;99.90;;;;;;5076056;28;20111;-59
2023/06/22 05:20:12;;;;;;;21.77;16.27;;;25.90;99.90;;;;;;5074603;28;20036;-56
2023/06/22 05:22:42;;;;;;;15.13;13.25;;;25.70;99.90;;;;;;5076483;28;20036;-54
2023/06/22 05:25:10;;;;;;;16.27;13.98;;;25.90;99.90;;;;;;5077971;28;20282;-57
2023/06/22 05:27:39;;;;;;;16.00;14.27;;;;;;;;;;5039214;28;20606;-62
2023/06/22 05:30:09;;;;;;;19.13;13.93;;;26.20;99.90;;;;;;5072154;28;20028;-59
2023/06/22 05:32:35;;;;;;;18.13;13.55;;;26.60;99.90;;;;;;5059007;28;20043;-59
2023/06/22 05:35:02;;;;;;;17.45;14.38;;;;;;;;;;5074542;28;20078;-59
2023/06/22 05:37:29;;;;;;;18.58;14.00;;;;;;;;;;5074926;28;20036;-57
2023/06/22 05:39:55;;;;;;;17.98;13.50;;;;;;;;;;5075579;28;20074;-62
2023/06/22 05:42:21;;;;;;;18.38;13.75;;;;;;;;;;5073357;28;20039;-56
2023/06/22 05:44:47;;;;;;;16.60;13.48;;;;;;;;;;5078336;28;20574;-60
2023/06/22 05:47:14;;;;;;;15.80;13.27;;;;;;;;;;5075678;28;20028;-55
2023/06/22 05:49:40;;;;;;;15.15;13.55;;;;;;;;;;5074541;28;20024;-61
2023/06/22 05:52:06;;;;;;;19.88;13.48;;;;;;;;;;5076094;28;20047;-58
2023/06/22 05:54:32;;;;;;;15.98;13.23;;;;;;;;;;5071052;28;20024;-60
2023/06/22 05:56:58;;;;;;;15.77;12.75;;;;;;;;;;5077131;28;20106;-54
2023/06/22 05:59:24;;;;;;;17.23;12.82;;;;;;;;;;5074350;28;20403;-60
2023/06/22 06:01:50;;;;;;;13.57;12.10;;;;;;;;;;5074992;28;20024;-60
2023/06/22 06:04:19;;;;;;;17.67;13.02;;;;;;;;;;5074919;28;20041;-60
2023/06/22 06:06:47;;;;;;;14.90;12.63;;;;;;;;;;5074613;28;20032;-60
2023/06/22 06:09:13;;;;;;;14.00;12.15;;;;;;;;;;5075551;28;20111;-58
2023/06/22 06:11:39;;;;;;;17.50;13.43;;;;;;;;;;5072980;28;20476;-58
2023/06/22 06:14:06;;;;;;;16.27;12.63;;;;;;;;;;5075922;28;20082;-55
2023/06/22 06:16:32;;;;;;;17.02;12.45;;;;;;;;;;5078073;28;20115;-56
2023/06/22 06:18:58;;;;;;;18.30;13.05;;;;;;;;;;5076404;28;20386;-58
2023/06/22 06:21:25;;;;;;;14.52;11.82;;;;;;;;;;5054024;28;20051;-54
2023/06/22 06:23:51;;;;;;;14.30;12.05;;;;;;;;;;5074009;28;20105;-55
2023/06/22 06:26:17;;;;;;;17.30;12.52;;;;;;;;;;5073559;28;20369;-59
2023/06/22 06:28:43;;;;;;;12.43;11.13;;;;;;;;;;5075092;28;20104;-54
2023/06/22 06:31:09;;;;;;;15.73;12.05;;;29.00;99.90;;;;;;5072946;28;20089;-57
2023/06/22 06:33:36;;;;;;;13.23;11.05;;;29.10;99.90;;;;;;5073178;28;20422;-55
2023/06/22 06:36:03;;;;;;;14.38;10.80;;;29.10;99.90;;;;;;5074562;28;20028;-57
2023/06/22 06:38:30;;;;;;;17.77;11.68;;;29.30;99.90;;;;;;5054450;28;20052;-56
2023/06/22 06:40:56;;;;;;;14.93;11.15;;;29.40;99.90;;;;;;5077061;28;20020;-60
2023/06/22 06:43:22;;;;;;;14.20;10.82;;;29.50;99.90;;;;;;5075618;28;20039;-56
2023/06/22 06:45:48;;;;;;;11.55;10.02;;;29.50;99.90;;;;;;5074755;28;20397;-58
2023/06/22 06:48:14;;;;;;;14.95;11.20;;;29.60;99.90;;;;;;5071250;28;20032;-56
2023/06/22 06:50:39;;;;;;;17.83;10.15;;;29.70;99.90;;;;;;5073321;28;20027;-54
2023/06/22 06:53:06;;;;;;;14.70;10.23;;;29.70;99.90;;;;;;5069772;28;20036;-57
2023/06/22 06:55:32;;;;;;;12.95;10.63;;;30.00;99.90;;;;;;5073668;28;20121;-58
2023/06/22 06:57:59;;;;;;;14.05;10.02;;;30.00;99.90;;;;;;5073433;28;20035;-53
2023/06/22 07:00:25;;;;;;;13.52;9.90;;;30.10;99.90;;;;;;5073277;28;20059;-52
2023/06/22 07:02:52;;;;;;;12.52;9.60;;;30.30;99.90;;;;;;5072615;28;20040;-53
2023/06/22 07:05:18;;;;;;;12.88;9.70;;;30.40;99.90;;;;;;5074023;28;20546;-53
2023/06/22 07:07:44;;;;;;;10.18;8.52;;;30.60;99.90;;;;;;5074350;28;20120;-52
2023/06/22 07:10:10;;;;;;;12.65;9.35;;;30.70;99.90;;;;;;5076842;28;20115;-54
2023/06/22 07:12:36;;;;;;;13.75;9.57;;;30.60;99.90;;;;;;5073694;28;20052;-52
2023/06/22 07:15:11;;;;;;;12.35;9.82;;;30.70;99.90;;;;;;5074680;28;20024;-52
2023/06/22 07:17:37;;;;;;;17.80;10.93;;;30.80;99.90;;;;;;5057265;28;20044;-52
2023/06/22 07:20:10;;;;;;;12.65;10.25;;;30.80;99.90;;;;;;5073974;28;20384;-52
2023/06/22 07:22:36;;;;;;;11.75;10.55;;;30.90;99.90;;;;;;5053735;28;20053;-52
2023/06/22 07:25:08;;;;;;;12.07;9.68;;;30.90;99.90;;;;;;5072727;28;20028;-52
2023/06/22 07:27:44;;;;;;;14.32;10.70;;;31.00;99.90;;;;;;5044118;28;20036;-53
2023/06/22 07:30:12;;;;;;;13.48;10.52;;;31.20;99.90;;;;;;5072737;28;20468;-54
2023/06/22 07:32:38;;;;;;;11.52;9.40;;;31.30;99.90;;;;;;5057837;28;20067;-52
2023/06/22 07:35:04;;;;;;;13.77;10.93;;;31.10;99.90;;;;;;5071596;28;20484;-52
2023/06/22 07:37:30;;;;;;;15.35;10.65;;;31.10;99.90;;;;;;5058028;28;20044;-52
2023/06/22 07:39:59;;;;;;;11.35;10.07;;;31.20;99.90;;;;;;5072637;28;20098;-53
2023/06/22 07:42:25;;;;;;;13.18;10.82;;;31.60;99.90;;;;;;5071533;28;20041;-55
2023/06/22 07:44:51;;;;;;;14.38;10.98;;;;;;;;;;5075210;28;20074;-53
2023/06/22 07:47:19;;;;;;;16.45;10.18;;;;;;;;;;5079655;28;20090;-53
2023/06/22 07:49:45;;;;;;;11.30;10.10;;;;;;;;;;5078261;28;20064;-53
2023/06/22 07:52:12;;;;;;;11.93;10.48;;;;;;;;;;5058336;28;20560;-53
2023/06/22 07:54:38;;;;;;;12.75;10.02;;;;;;;;;;5082835;28;20387;-53
2023/06/22 07:57:06;;;;;;;11.60;9.85;;;;;;;;;;5080270;28;20036;-53
2023/06/22 07:59:31;;;;;;;11.27;9.25;;;32.30;99.90;;;;;;5061964;28;20044;-52
2023/06/22 08:01:57;;;;;;;14.18;10.02;;;32.30;99.90;;;;;;5076484;28;20032;-52
2023/06/22 08:04:23;;;;;;;14.18;10.43;;;32.50;99.90;;;;;;5076135;28;20036;-53
2023/06/22 08:06:49;;;;;;;13.93;11.07;;;32.50;99.90;;;;;;5061971;28;20039;-54
2023/06/22 08:09:15;;;;;;;13.27;9.63;;;;;;;;;;5042043;28;20043;-53
2023/06/22 08:11:49;;;;;;;13.80;9.32;;;32.70;99.90;;;;;;5077182;28;20052;-53
2023/06/22 08:14:15;;;;;;;12.07;9.68;;;33.00;99.90;;;;;;5004499;28;20032;-52
2023/06/22 08:16:42;;;;;;;14.50;10.25;;;32.90;99.90;;;;;;5078569;28;20482;-52
2023/06/22 08:19:07;;;;;;;12.93;10.50;;;32.90;99.90;;;;;;5058809;28;20033;-53
2023/06/22 08:21:33;;;;;;;14.15;10.18;;;32.90;99.90;;;;;;5036715;28;20495;-52
2023/06/22 08:23:59;;;;;;;13.20;10.35;;;33.00;99.90;;;;;;5038331;28;20059;-52
2023/06/22 08:26:24;;;;;;;13.70;10.35;;;33.00;99.90;;;;;;5036627;28;20072;-53
2023/06/22 08:28:50;;;;;;;12.70;10.38;;;32.80;99.90;;;;;;5053942;28;20041;-53
2023/06/22 08:31:16;;;;;;;11.77;9.20;;;32.80;99.90;;;;;;5054525;28;20041;-52
2023/06/22 08:33:43;;;;;;;13.60;9.43;;;32.70;99.90;;;;;;5057199;28;20037;-53
2023/06/22 08:36:10;;;;;;;10.18;9.07;;;33.00;99.90;;;;;;5053053;28;20108;-52
2023/06/22 08:38:37;;;;;;;12.57;9.98;;;;;;;;;;5054307;28;20079;-52
2023/06/22 08:41:02;;;;;;;12.60;9.57;;;33.70;99.90;;;;;;5054567;28;20052;-52
2023/06/22 08:43:28;;;;;;;13.32;9.40;;;33.90;99.90;;;;;;5059235;28;20068;-53
2023/06/22 08:45:54;;;;;;;12.55;10.02;;;;;;;;;;5052199;28;20033;-52
2023/06/22 08:48:20;;;;;;;12.57;9.18;;;;;;;;;;5057228;28;20040;-52
2023/06/22 08:50:46;;;;;;;11.40;8.95;;;;;;;;;;5059338;28;20047;-54
2023/06/22 08:53:13;;;;;;;10.68;9.40;;;;;;;;;;5079135;28;20372;-54
2023/06/22 08:55:38;;;;;;;13.18;9.63;;;34.40;99.90;;;;;;5059268;28;20450;-52
2023/06/22 08:58:05;;;;;;;14.60;9.02;;;34.60;99.90;;;;;;5074541;28;20056;-54
2023/06/22 09:00:34;;;;;;;12.00;9.85;;;34.30;99.90;;;;;;5076243;28;20043;-53
2023/06/22 09:03:00;;;;;;;10.05;8.90;;;34.50;99.90;;;;;;5075100;28;20051;-54
2023/06/22 09:05:27;;;;;;;12.50;9.30;;;34.60;99.90;;;;;;5072171;28;20502;-55
2023/06/22 09:07:54;;;;;;;10.90;8.57;;;34.70;99.90;;;;;;5077813;28;20031;-53
2023/06/22 09:10:20;;;;;;;10.82;9.38;;;34.90;99.90;;;;;;5074940;28;20020;-52
2023/06/22 09:12:46;;;;;;;11.35;9.07;;;34.70;99.90;;;;;;5074102;28;20044;-54
2023/06/22 09:15:12;;;;;;;10.25;8.48;;;34.80;99.90;;;;;;5078311;28;20486;-52
2023/06/22 09:17:38;;;;;;;9.98;8.93;;;34.60;99.90;;;;;;5062100;28;20029;-52
2023/06/22 09:20:05;;;;;;;11.45;8.88;;;34.60;99.90;;;;;;5076213;28;20107;-53
2023/06/22 09:22:32;;;;;;;13.65;10.05;;;34.00;99.90;;;;;;5060680;28;20044;-53
2023/06/22 09:24:59;;;;;;;13.52;9.20;;;34.20;99.90;;;;;;5073806;28;20028;-52
2023/06/22 09:27:25;;;;;;;10.40;9.25;;;34.60;99.90;;;;;;5069847;28;20029;-52
2023/06/22 09:29:51;;;;;;;11.00;9.77;;;35.00;99.90;;;;;;5060050;28;20113;-52
2023/06/22 09:32:16;;;;;;;12.82;11.40;;;35.10;99.90;;;;;;5075513;28;20041;-53
2023/06/22 09:34:42;;;;;;;12.50;11.15;;;35.40;99.90;;;;;;5077210;28;20031;-51
2023/06/22 09:37:08;;;;;;;14.85;12.00;;;35.70;99.90;;;;;;5068945;28;20594;-53
2023/06/22 09:39:34;;;;;;;15.57;13.95;;;35.10;99.90;;;;;;5073974;28;20460;-54
2023/06/22 09:42:00;;;;;;;16.20;14.60;;;34.60;99.90;;;;;;5075829;28;20471;-53
2023/06/22 09:44:25;;;;;;;19.92;15.45;;;34.30;99.90;;;;;;5074184;28;20051;-54
2023/06/22 09:46:51;;;;;;;16.85;15.18;;;34.90;99.90;;;;;;5079211;28;20025;-52
2023/06/22 09:49:17;;;;;;;16.85;15.15;;;35.20;99.90;;;;;;5074984;28;20031;-54
2023/06/22 09:51:43;;;;;;;14.77;13.25;;;35.50;99.90;;;;;;5074661;28;20033;-52
2023/06/22 09:54:09;;;;;;;12.85;11.52;;;35.80;99.90;;;;;;5073376;28;20036;-53
2023/06/22 09:56:34;;;;;;;13.45;12.07;;;35.80;99.90;;;;;;5076419;28;20028;-53
2023/06/22 09:59:00;;;;;;;10.73;8.93;;;35.90;99.90;;;;;;5074554;28;20502;-55
2023/06/22 10:01:26;;;;;;;10.90;9.75;;;35.00;99.90;;;;;;5021951;28;20060;-52
2023/06/22 10:03:56;;;;;;;11.63;10.18;;;35.40;99.90;;;;;;5076397;28;20028;-51
2023/06/22 10:06:22;;;;;;;12.13;10.30;;;35.80;99.90;;;;;;5074009;28;20119;-53
2023/06/22 10:08:48;;;;;;;12.50;9.43;;;;;;;;;;5075276;28;20024;-54
2023/06/22 10:11:14;;;;;;;10.82;9.73;;;36.20;99.90;;;;;;5073923;28;20028;-54
2023/06/22 10:13:40;;;;;;;11.85;8.98;;;36.30;99.90;;;;;;5022460;28;20449;-52
2023/06/22 10:16:06;;;;;;;12.07;9.30;;;36.80;99.90;;;;;;5079556;28;20072;-52
2023/06/22 10:18:32;;;;;;;10.40;9.18;;;37.00;99.90;;;;;;5074310;28;20039;-52
2023/06/22 10:20:58;;;;;;;11.65;10.45;;;36.70;99.90;;;;;;5070593;28;20115;-52
2023/06/22 10:23:24;;;;;;;11.45;10.35;;;36.00;99.90;;;;;;5074140;28;20383;-52
2023/06/22 10:25:49;;;;;;;12.73;11.23;;;36.10;99.90;;;;;;5074335;28;20130;-53
2023/06/22 10:28:15;;;;;;;13.32;10.63;;;36.00;99.90;;;;;;5055308;28;20041;-52
2023/06/22 10:30:42;;;;;;;11.73;10.43;;;36.10;99.90;;;;;;5076434;28;20077;-53
2023/06/22 10:33:08;;;;;;;12.20;10.35;;;36.40;99.90;;;;;;5074217;28;20112;-52
2023/06/22 10:35:35;;;;;;;11.52;10.25;;;36.20;99.90;;;;;;5071051;28;20043;-52
2023/06/22 10:38:00;;;;;;;13.00;9.85;;;36.20;99.90;;;;;;5075329;28;20071;-52
2023/06/22 10:40:26;;;;;;;12.32;10.02;;;36.30;99.90;;;;;;5075003;28;20076;-54
2023/06/22 10:42:52;;;;;;;12.85;9.90;;;36.50;99.90;;;;;;5075967;28;20115;-53
2023/06/22 10:45:18;;;;;;;13.95;10.38;;;37.10;99.90;;;;;;5075293;28;20512;-51
2023/06/22 10:47:43;;;;;;;14.90;11.50;;;37.20;99.90;;;;;;5075762;28;20593;-53
2023/06/22 10:50:09;;;;;;;15.27;12.23;;;37.50;99.90;;;;;;5088278;28;20127;-52
2023/06/22 10:52:35;;;;;;;13.48;12.07;;;37.30;99.20;;;;;;5055738;28;20090;-52
2023/06/22 10:55:01;;;;;;;13.18;11.80;;;37.70;98.70;;;;;;5075953;28;20032;-54
2023/06/22 10:57:27;;;;;;;11.70;9.55;;;37.90;99.40;;;;;;5072656;28;20361;-54
2023/06/22 10:59:52;;;;;;;10.48;9.38;;;37.90;99.10;;;;;;5054478;28;20036;-54
2023/06/22 11:02:18;;;;;;;10.50;9.27;;;37.70;98.50;;;;;;5073688;28;20119;-52
2023/06/22 11:04:44;;;;;;;14.90;8.85;;;37.80;98.20;;;;;;5074674;28;20021;-53
2023/06/22 11:07:10;;;;;;;11.57;8.88;;;;;;;;;;5074131;28;20399;-54
2023/06/22 11:09:37;;;;;;;12.60;8.98;;;37.10;99.90;;;;;;5073731;28;20269;-52
2023/06/22 11:12:04;;;;;;;9.13;8.23;;;37.20;99.90;;;;;;5075943;28;20549;-53
2023/06/22 11:14:29;;;;;;;11.32;9.55;;;36.20;97.80;;;;;;5055502;28;20467;-52
2023/06/22 11:16:56;;;;;;;9.50;8.15;;;36.40;97.90;;;;;;5078316;28;20051;-54
2023/06/22 11:19:21;;;;;;;8.95;8.05;;;36.70;98.10;;;;;;5057531;28;20036;-53
2023/06/22 11:21:47;;;;;;;9.73;8.73;;;;;;;;;;5075568;28;20113;-53
2023/06/22 11:24:13;;;;;;;10.23;8.18;;;37.30;99.90;;;;;;5059201;28;20040;-53
2023/06/22 11:26:39;;;;;;;9.32;8.15;;;37.70;97.90;;;;;;5075708;28;20036;-54
2023/06/22 11:29:05;;;;;;;8.75;7.85;;;37.80;98.10;;;;;;5077364;28;20085;-54
2023/06/22 11:31:35;;;;;;;10.25;7.80;;;37.60;96.40;;;;;;5076368;28;20396;-53
2023/06/22 11:34:01;;;;;;;11.57;7.38;;;37.70;96.40;;;;;;5076637;28;20062;-53
2023/06/22 11:36:28;;;;;;;9.13;8.18;;;;;;;;;;5079071;28;20464;-54
2023/06/22 11:38:54;;;;;;;9.35;7.55;;;38.20;97.10;;;;;;5078456;28;20079;-54
2023/06/22 11:41:20;;;;;;;9.25;7.10;;;38.20;96.70;;;;;;5077291;28;20059;-51
2023/06/22 11:43:46;;;;;;;9.20;6.72;;;38.00;97.70;;;;;;5076311;28;20040;-52
2023/06/22 11:46:12;;;;;;;7.82;6.57;;;38.20;97.40;;;;;;5060865;28;20041;-54
2023/06/22 11:48:37;;;;;;;7.40;6.70;;;38.10;98.40;;;;;;5080218;28;20033;-53
2023/06/22 11:51:03;;;;;;;6.72;6.03;;;;;;;;;;5076677;28;20029;-54
2023/06/22 11:53:29;;;;;;;7.70;6.75;;;38.50;99.90;;;;;;5057517;28;20040;-54
2023/06/22 11:55:56;;;;;;;7.82;6.25;;;38.60;96.50;;;;;;5085956;28;20027;-55
2023/06/22 11:58:22;;;;;;;7.90;6.93;;;37.90;96.30;;;;;;5080579;28;20033;-54
2023/06/22 12:00:48;;;;;;;123.05;77.88;;;37.40;96.80;;;;;;5075975;28;20383;-55
2023/06/22 12:03:17;;;;;;;227.15;204.90;;;37.00;98.20;;;;;;5075950;28;20101;-54
2023/06/22 12:05:43;;;;;;;23.67;11.70;;;37.00;97.40;;;;;;5076950;28;20079;-54
2023/06/22 12:08:09;;;;;;;8.88;7.05;;;37.50;98.40;;;;;;5075962;28;20115;-54
2023/06/22 12:10:35;;;;;;;7.82;7.03;;;;;;;;;;5077699;28;20116;-54
2023/06/22 12:13:00;;;;;;;8.00;6.93;;;37.80;99.90;;;;;;5077592;28;20049;-55
2023/06/22 12:15:27;;;;;;;7.85;6.32;;;;;;;;;;5075836;28;20094;-52
2023/06/22 12:17:53;;;;;;;8.98;6.72;;;;;;;;;;5075891;28;20043;-51
2023/06/22 12:20:19;;;;;;;7.53;6.72;;;36.80;98.00;;;;;;5058018;28;20051;-55
2023/06/22 12:22:45;;;;;;;8.40;6.70;;;;;;;;;;5079688;28;20032;-52
2023/06/22 12:25:11;;;;;;;11.63;7.03;;;37.60;99.90;;;;;;5066096;28;20083;-55
2023/06/22 12:27:37;;;;;;;7.07;5.68;;;37.50;99.90;;;;;;5075000;28;20487;-54
2023/06/22 12:30:04;;;;;;;6.25;5.40;;;37.60;99.90;;;;;;5079410;28;20384;-54
2023/06/22 12:32:30;;;;;;;6.95;6.25;;;;;;;;;;5075835;28;20090;-54
2023/06/22 12:34:56;;;;;;;7.75;6.15;;;;;;;;;;5056969;28;20044;-55
2023/06/22 12:37:23;;;;;;;9.25;6.00;;;;;;;;;;5075584;28;20380;-53
2023/06/22 12:39:48;;;;;;;9.25;6.22;;;37.70;96.10;;;;;;5078987;28;20032;-55
2023/06/22 12:42:15;;;;;;;9.93;6.20;;;37.30;95.90;;;;;;5078861;28;20487;-54
2023/06/22 12:44:41;;;;;;;6.32;5.35;;;37.30;96.40;;;;;;5076335;28;20078;-52
2023/06/22 12:47:10;;;;;;;12.95;5.95;;;;;;;;;;5079205;28;20408;-54
2023/06/22 12:49:37;;;;;;;8.35;5.65;;;37.60;96.00;;;;;;5075118;28;20028;-53
2023/06/22 12:52:03;;;;;;;7.55;6.10;;;37.00;95.90;;;;;;5075482;28;20021;-54